地図

経路データ

SID SEASON NUMBER BASIN SUBBASIN NAME ISO_TIME NATURE LAT LON WMO_WIND WMO_PRES WMO_AGENCY TRACK_TYPE DIST2LAND LANDFALL IFLAG USA_AGENCY USA_ATCF_ID USA_LAT USA_LON USA_RECORD USA_STATUS USA_WIND USA_PRES USA_SSHS USA_R34_NE USA_R34_SE USA_R34_SW USA_R34_NW USA_R50_NE USA_R50_SE USA_R50_SW USA_R50_NW USA_R64_NE USA_R64_SE USA_R64_SW USA_R64_NW USA_POCI USA_ROCI USA_RMW USA_EYE TOKYO_LAT TOKYO_LON TOKYO_GRADE TOKYO_WIND TOKYO_PRES TOKYO_R50_DIR TOKYO_R50_LONG TOKYO_R50_SHORT TOKYO_R30_DIR TOKYO_R30_LONG TOKYO_R30_SHORT TOKYO_LAND CMA_LAT CMA_LON CMA_CAT CMA_WIND CMA_PRES HKO_LAT HKO_LON HKO_CAT HKO_WIND HKO_PRES NEWDELHI_LAT NEWDELHI_LON NEWDELHI_GRADE NEWDELHI_WIND NEWDELHI_PRES NEWDELHI_CI NEWDELHI_DP NEWDELHI_POCI REUNION_LAT REUNION_LON REUNION_TYPE REUNION_WIND REUNION_PRES REUNION_TNUM REUNION_CI REUNION_RMW REUNION_R34_NE REUNION_R34_SE REUNION_R34_SW REUNION_R34_NW REUNION_R50_NE REUNION_R50_SE REUNION_R50_SW REUNION_R50_NW REUNION_R64_NE REUNION_R64_SE REUNION_R64_SW REUNION_R64_NW BOM_LAT BOM_LON BOM_TYPE BOM_WIND BOM_PRES BOM_TNUM BOM_CI BOM_RMW BOM_R34_NE BOM_R34_SE BOM_R34_SW BOM_R34_NW BOM_R50_NE BOM_R50_SE BOM_R50_SW BOM_R50_NW BOM_R64_NE BOM_R64_SE BOM_R64_SW BOM_R64_NW BOM_ROCI BOM_POCI BOM_EYE BOM_POS_METHOD BOM_PRES_METHOD NADI_LAT NADI_LON NADI_CAT NADI_WIND NADI_PRES WELLINGTON_LAT WELLINGTON_LON WELLINGTON_WIND WELLINGTON_PRES DS824_LAT DS824_LON DS824_STAGE DS824_WIND DS824_PRES TD9636_LAT TD9636_LON TD9636_STAGE TD9636_WIND TD9636_PRES TD9635_LAT TD9635_LON TD9635_WIND TD9635_PRES TD9635_ROCI NEUMANN_LAT NEUMANN_LON NEUMANN_CLASS NEUMANN_WIND NEUMANN_PRES MLC_LAT MLC_LON MLC_CLASS MLC_WIND MLC_PRES USA_GUST BOM_GUST BOM_GUST_PER REUNION_GUST REUNION_GUST_PER USA_SEAHGT USA_SEARAD_NE USA_SEARAD_SE USA_SEARAD_SW USA_SEARAD_NW STORM_SPEED STORM_DIR
1936228N21273 1936 36 NA CS NOT_NAMED 1936-08-15 06:00:00 TS 20.6000 -86.8000 35 hurdat_atl main 24 0 O_____________ hurdat_atl AL081936 20.6000 -86.8000 TS 35 0 10 338
1936228N21273 1936 36 NA NA NOT_NAMED 1936-08-15 09:00:00 TS 21.0500 -86.9923 main 0 0 P_____________ AL081936 21.0500 -86.9923 TS 35 0 10 338
1936228N21273 1936 36 NA GM NOT_NAMED 1936-08-15 12:00:00 TS 21.5000 -87.2000 35 hurdat_atl main 10 10 O_____________ hurdat_atl AL081936 21.5000 -87.2000 TS 35 0 10 335
1936228N21273 1936 36 NA GM NOT_NAMED 1936-08-15 15:00:00 TS 21.9500 -87.4352 main 54 54 P_____________ AL081936 21.9500 -87.4352 TS 37 0 10 333
1936228N21273 1936 36 NA GM NOT_NAMED 1936-08-15 18:00:00 TS 22.4000 -87.7000 40 hurdat_atl main 100 100 O_____________ hurdat_atl AL081936 22.4000 -87.7000 TS 40 0 11 332
1936228N21273 1936 36 NA GM NOT_NAMED 1936-08-15 21:00:00 TS 22.8873 -87.9700 main 156 156 P_____________ AL081936 22.8873 -87.9700 TS 45 0 11 328
1936228N21273 1936 36 NA GM NOT_NAMED 1936-08-16 00:00:00 TS 23.3000 -88.3000 50 999 hurdat_atl main 201 201 O_____________ hurdat_atl AL081936 23.3000 -88.3000 TS 50 999 0 10 313
1936228N21273 1936 36 NA GM NOT_NAMED 1936-08-16 03:00:00 TS 23.5450 -88.7277 main 223 223 P_____________ AL081936 23.5450 -88.7277 TS 52 0 9 296
1936228N21273 1936 36 NA GM NOT_NAMED 1936-08-16 06:00:00 TS 23.7000 -89.2000 55 hurdat_atl main 253 253 O_____________ hurdat_atl AL081936 23.7000 -89.2000 TS 55 0 9 290
1936228N21273 1936 36 NA GM NOT_NAMED 1936-08-16 09:00:00 TS 23.8574 -89.6502 main 291 291 P_____________ AL081936 23.8574 -89.6502 TS 57 0 9 290
1936228N21273 1936 36 NA GM NOT_NAMED 1936-08-16 12:00:00 TS 24.0000 -90.1000 60 hurdat_atl main 312 312 O_____________ hurdat_atl AL081936 24.0000 -90.1000 TS 60 0 9 290
1936228N21273 1936 36 NA GM NOT_NAMED 1936-08-16 15:00:00 TS 24.1574 -90.5500 main 342 342 P_____________ AL081936 24.1574 -90.5500 TS 62 0 9 290
1936228N21273 1936 36 NA GM NOT_NAMED 1936-08-16 18:00:00 TS 24.3000 -91.0000 65 hurdat_atl main 364 364 O_____________ hurdat_atl AL081936 24.3000 -91.0000 HU 65 1 9 288
1936228N21273 1936 36 NA GM NOT_NAMED 1936-08-16 21:00:00 TS 24.4224 -91.4500 main 385 388 P_____________ AL081936 24.4224 -91.4500 HU 65 1 8 284
1936228N21273 1936 36 NA GM NOT_NAMED 1936-08-17 00:00:00 TS 24.5000 -91.9000 65 hurdat_atl main 413 413 O_____________ hurdat_atl AL081936 24.5000 -91.9000 HU 65 1 8 277
1936228N21273 1936 36 NA GM NOT_NAMED 1936-08-17 03:00:00 TS 24.5224 -92.3501 main 436 436 P_____________ AL081936 24.5224 -92.3501 HU 65 1 8 270
1936228N21273 1936 36 NA GM NOT_NAMED 1936-08-17 06:00:00 TS 24.5000 -92.8000 65 hurdat_atl main 458 420 O_____________ hurdat_atl AL081936 24.5000 -92.8000 HU 65 1 8 266
1936228N21273 1936 36 NA GM NOT_NAMED 1936-08-17 09:00:00 TS 24.4574 -93.2576 main 411 377 P_____________ AL081936 24.4574 -93.2576 HU 65 1 8 263
1936228N21273 1936 36 NA GM NOT_NAMED 1936-08-17 12:00:00 TS 24.4000 -93.7000 65 hurdat_atl main 377 339 O_____________ hurdat_atl AL081936 24.4000 -93.7000 HU 65 1 8 263
1936228N21273 1936 36 NA GM NOT_NAMED 1936-08-17 15:00:00 TS 24.3650 -94.1299 main 339 307 P_____________ AL081936 24.3650 -94.1299 HU 65 1 7 262
1936228N21273 1936 36 NA GM NOT_NAMED 1936-08-17 18:00:00 TS 24.3000 -94.5000 65 hurdat_atl main 307 285 O_____________ hurdat_atl AL081936 24.3000 -94.5000 HU 65 1 6 251
1936228N21273 1936 36 NA GM NOT_NAMED 1936-08-17 21:00:00 TS 24.1648 -94.7725 main 285 276 P_____________ AL081936 24.1648 -94.7725 HU 65 1 5 237
1936228N21273 1936 36 NA GM NOT_NAMED 1936-08-18 00:00:00 TS 24.0000 -95.0000 65 hurdat_atl main 276 262 O_____________ hurdat_atl AL081936 24.0000 -95.0000 HU 65 1 5 234
1936228N21273 1936 36 NA GM NOT_NAMED 1936-08-18 03:00:00 TS 23.8500 -95.2499 main 264 234 P_____________ AL081936 23.8500 -95.2499 HU 65 1 5 237
1936228N21273 1936 36 NA GM NOT_NAMED 1936-08-18 06:00:00 TS 23.7000 -95.5000 65 hurdat_atl main 234 213 O_____________ hurdat_atl AL081936 23.7000 -95.5000 HU 65 1 6 236
1936228N21273 1936 36 NA GM NOT_NAMED 1936-08-18 09:00:00 TS 23.5425 -95.7500 main 214 183 P_____________ AL081936 23.5425 -95.7500 HU 65 1 5 237
1936228N21273 1936 36 NA GM NOT_NAMED 1936-08-18 12:00:00 TS 23.4000 -96.0000 65 hurdat_atl main 183 163 O_____________ hurdat_atl AL081936 23.4000 -96.0000 HU 65 1 5 241
1936228N21273 1936 36 NA GM NOT_NAMED 1936-08-18 15:00:00 TS 23.2925 -96.2499 main 163 132 P_____________ AL081936 23.2925 -96.2499 HU 65 1 5 247
1936228N21273 1936 36 NA GM NOT_NAMED 1936-08-18 18:00:00 TS 23.2000 -96.5000 65 hurdat_atl main 132 112 O_____________ hurdat_atl AL081936 23.2000 -96.5000 HU 65 1 5 248
1936228N21273 1936 36 NA GM NOT_NAMED 1936-08-18 21:00:00 TS 23.1000 -96.7575 main 102 81 P_____________ AL081936 23.1000 -96.7575 HU 65 1 5 247
1936228N21273 1936 36 NA GM NOT_NAMED 1936-08-19 00:00:00 TS 23.0000 -97.0000 65 hurdat_atl main 81 61 O_____________ hurdat_atl AL081936 23.0000 -97.0000 HU 65 1 5 245
1936228N21273 1936 36 NA GM NOT_NAMED 1936-08-19 03:00:00 TS 22.9074 -97.2074 main 61 40 P_____________ AL081936 22.9074 -97.2074 HU 65 1 4 242
1936228N21273 1936 36 NA GM NOT_NAMED 1936-08-19 06:00:00 TS 22.8000 -97.4000 65 hurdat_atl main 40 23 O_____________ hurdat_atl AL081936 22.8000 -97.4000 HU 65 1 4 234
1936228N21273 1936 36 NA GM NOT_NAMED 1936-08-19 09:00:00 TS 22.6574 -97.5849 main 23 0 P_____________ AL081936 22.6574 -97.5849 HU 65 1 5 231
1936228N21273 1936 36 NA GM NOT_NAMED 1936-08-19 12:00:00 TS 22.5000 -97.8000 65 hurdat_atl main 0 0 O_____________ hurdat_atl AL081936 22.5000 -97.8000 HU 65 1 6 236
1936228N21273 1936 36 NA NA NOT_NAMED 1936-08-19 15:00:00 TS 22.3426 -98.0926 main 0 0 P_____________ AL081936 22.3426 -98.0926 HU 55 0 6 242
1936228N21273 1936 36 NA NA NOT_NAMED 1936-08-19 18:00:00 TS 22.2000 -98.4000 45 hurdat_atl main 0 0 O_____________ hurdat_atl AL081936 22.2000 -98.4000 TS 45 0 6 245
1936228N21273 1936 36 NA NA NOT_NAMED 1936-08-19 21:00:00 TS 22.0900 -98.6650 main 0 0 P_____________ AL081936 22.0900 -98.6650 TS 37 0 5 247
1936228N21273 1936 36 NA NA NOT_NAMED 1936-08-20 00:00:00 TS 22.0000 -98.9000 30 hurdat_atl main 0 O_____________ hurdat_atl AL081936 22.0000 -98.9000 TD 30 -1 5 247

IBTrACS Databaseについて

本データベースは、米国NOAAが公開する1842年以降の世界の熱帯低気圧のベストトラックデータアーカイブInternational Best Track Archive for Climate Stewardship (IBTrACS)を、ウェブで閲覧しやすい形式に変換したものです。

最終更新日:2021-11-26